Time;durP1;ratioP1;P1;durP2;ratioP2;P2;SDS_P1;SDS_P2;PMS_P1;PMS_P2;Temp;Humidity;BMP_temperature;BMP_pressure;BME280_temperature;BME280_humidity;BME280_pressure;Samples;Min_cycle;Max_cycle;Signal;HPM_P1;HPM_P2
2023/04/23 00:01:29;;;;;;;32.40;22.70;;;15.40;59.50;;;;;;5019677;28;20061;-47
2023/04/23 00:03:58;;;;;;;28.63;21.52;;;15.40;59.60;;;;;;5020753;28;20050;-47
2023/04/23 00:06:26;;;;;;;28.70;21.00;;;15.40;59.70;;;;;;5021903;28;20053;-49
2023/04/23 00:08:54;;;;;;;31.63;22.75;;;15.40;59.70;;;;;;5020273;28;20057;-45
2023/04/23 00:11:23;;;;;;;33.58;22.80;;;15.30;59.80;;;;;;5002706;28;20049;-45
2023/04/23 00:13:51;;;;;;;26.25;20.77;;;15.40;59.90;;;;;;5019393;28;20056;-44
2023/04/23 00:16:20;;;;;;;28.42;21.85;;;15.40;59.90;;;;;;5018754;28;20045;-47
2023/04/23 00:18:47;;;;;;;30.67;23.20;;;15.30;59.90;;;;;;5019432;28;20079;-48
2023/04/23 00:21:14;;;;;;;36.20;26.65;;;15.30;59.90;;;;;;5020232;28;20057;-48
2023/04/23 00:23:41;;;;;;;30.83;23.60;;;15.30;60.00;;;;;;5017801;28;20149;-51
2023/04/23 00:26:09;;;;;;;33.97;24.58;;;15.30;60.00;;;;;;5020745;28;20060;-49
2023/04/23 00:28:37;;;;;;;30.40;23.55;;;15.30;60.00;;;;;;5020208;28;20057;-48
2023/04/23 00:31:05;;;;;;;31.15;22.58;;;15.30;60.00;;;;;;5017639;28;20429;-45
2023/04/23 00:33:32;;;;;;;29.48;22.00;;;15.30;59.90;;;;;;5018404;28;20375;-46
2023/04/23 00:35:59;;;;;;;25.67;19.83;;;15.30;59.90;;;;;;5021194;28;20649;-45
2023/04/23 00:38:26;;;;;;;26.05;19.80;;;15.30;59.90;;;;;;5015815;28;20057;-47
2023/04/23 00:40:54;;;;;;;28.48;20.35;;;15.30;59.90;;;;;;5020201;28;20057;-46
2023/04/23 00:43:22;;;;;;;28.45;20.13;;;15.30;59.90;;;;;;5020380;28;20049;-47
2023/04/23 00:45:51;;;;;;;26.73;20.42;;;15.30;59.80;;;;;;5016994;28;20053;-46
2023/04/23 00:48:18;;;;;;;25.15;19.70;;;15.40;59.80;;;;;;5019431;28;20535;-47
2023/04/23 00:50:46;;;;;;;25.20;19.13;;;15.40;59.70;;;;;;5020035;28;20057;-46
2023/04/23 00:53:13;;;;;;;26.77;18.92;;;15.40;59.70;;;;;;5020061;28;20049;-48
2023/04/23 00:55:41;;;;;;;27.90;21.60;;;15.40;59.60;;;;;;5018171;28;20405;-46
2023/04/23 00:58:08;;;;;;;26.30;20.02;;;15.40;59.50;;;;;;5019165;28;20045;-47
2023/04/23 01:00:42;;;;;;;26.40;20.23;;;15.40;59.40;;;;;;5018100;28;20068;-46
2023/04/23 01:03:11;;;;;;;26.05;20.52;;;15.50;59.40;;;;;;5036711;22;20060;-46
2023/04/23 01:05:40;;;;;;;28.67;22.35;;;15.50;59.40;;;;;;5001589;28;20421;-45
2023/04/23 01:08:07;;;;;;;27.10;20.42;;;15.50;59.30;;;;;;5005153;28;20058;-47
2023/04/23 01:10:34;;;;;;;27.00;20.27;;;15.50;59.20;;;;;;5002244;28;20419;-44
2023/04/23 01:13:02;;;;;;;26.73;20.65;;;15.50;59.20;;;;;;5003080;28;20045;-44
2023/04/23 01:15:29;;;;;;;27.23;20.10;;;15.60;59.20;;;;;;5001165;28;20053;-46
2023/04/23 01:17:57;;;;;;;28.13;21.20;;;15.50;59.10;;;;;;5003920;28;20054;-43
2023/04/23 01:20:25;;;;;;;27.33;20.92;;;15.50;59.00;;;;;;5002036;28;20072;-43
2023/04/23 01:22:55;;;;;;;25.30;19.38;;;15.50;59.00;;;;;;5004696;28;20068;-47
2023/04/23 01:25:22;;;;;;;25.33;18.88;;;15.50;59.00;;;;;;5002407;28;20057;-44
2023/04/23 01:27:50;;;;;;;26.05;19.20;;;15.60;59.00;;;;;;5003855;28;20057;-47
2023/04/23 01:30:17;;;;;;;26.75;19.95;;;15.50;58.90;;;;;;5000340;28;20053;-47
2023/04/23 01:32:46;;;;;;;27.30;20.13;;;15.50;58.90;;;;;;5002456;28;20812;-46
2023/04/23 01:35:13;;;;;;;25.45;19.42;;;15.50;58.90;;;;;;5000877;28;20061;-44
2023/04/23 01:37:43;;;;;;;25.67;20.05;;;15.50;58.80;;;;;;5002198;28;20053;-44
2023/04/23 01:40:12;;;;;;;28.67;19.58;;;15.60;59.40;;;;;;5002818;28;20068;-47
2023/04/23 01:42:40;;;;;;;27.02;20.25;;;15.60;58.80;;;;;;5002820;28;20057;-46
2023/04/23 01:45:08;;;;;;;27.27;20.83;;;15.50;58.80;;;;;;5001015;28;20057;-47
2023/04/23 01:47:36;;;;;;;28.23;20.23;;;15.50;58.70;;;;;;5002890;28;20049;-47
2023/04/23 01:50:04;;;;;;;25.33;19.48;;;15.50;58.70;;;;;;5003023;28;20401;-44
2023/04/23 01:52:31;;;;;;;27.42;20.42;;;15.50;58.70;;;;;;5002416;28;20053;-46
2023/04/23 01:54:58;;;;;;;25.88;20.35;;;15.50;58.70;;;;;;5000944;28;20056;-47
2023/04/23 01:57:27;;;;;;;25.48;19.40;;;15.50;58.70;;;;;;5002418;28;20054;-45
2023/04/23 02:00:00;;;;;;;26.70;19.50;;;15.50;58.70;;;;;;5000929;28;20484;-46
2023/04/23 02:02:27;;;;;;;26.27;19.97;;;15.50;58.70;;;;;;5001557;28;20480;-43
2023/04/23 02:04:56;;;;;;;25.33;20.10;;;15.50;58.60;;;;;;4993900;28;20054;-45
2023/04/23 02:07:23;;;;;;;26.77;19.60;;;15.50;58.60;;;;;;4986602;28;20418;-41
2023/04/23 02:09:50;;;;;;;29.77;22.15;;;15.50;58.60;;;;;;4987411;28;20085;-42
2023/04/23 02:12:18;;;;;;;29.13;20.92;;;15.50;58.60;;;;;;4991370;28;20053;-41
2023/04/23 02:14:46;;;;;;;32.03;23.35;;;15.40;58.50;;;;;;4987984;28;20065;-42
2023/04/23 02:17:14;;;;;;;29.48;21.58;;;15.40;58.50;;;;;;4992273;28;20482;-43
2023/04/23 02:19:41;;;;;;;33.00;24.02;;;15.40;58.50;;;;;;4987529;28;20054;-41
2023/04/23 02:22:09;;;;;;;29.15;22.38;;;15.40;58.50;;;;;;4987766;28;20049;-43
2023/04/23 02:24:37;;;;;;;30.23;22.83;;;15.40;58.60;;;;;;4985704;28;20055;-44
2023/04/23 02:27:05;;;;;;;35.75;24.73;;;15.40;58.50;;;;;;4988073;28;20621;-40
2023/04/23 02:29:32;;;;;;;34.58;23.75;;;15.40;59.00;;;;;;4990147;28;20054;-42
2023/04/23 02:32:00;;;;;;;30.23;22.27;;;15.30;58.50;;;;;;4993505;28;20053;-43
2023/04/23 02:34:28;;;;;;;35.80;25.33;;;15.30;58.50;;;;;;4989495;28;20061;-44
2023/04/23 02:36:55;;;;;;;34.90;23.85;;;15.30;58.40;;;;;;4993717;28;20057;-45
2023/04/23 02:39:22;;;;;;;33.30;23.08;;;15.30;58.50;;;;;;4989149;28;20054;-42
2023/04/23 02:41:51;;;;;;;30.08;22.13;;;15.30;58.40;;;;;;4987306;28;20057;-42
2023/04/23 02:44:19;;;;;;;30.55;21.85;;;15.20;58.40;;;;;;4982508;28;20062;-43
2023/04/23 02:46:46;;;;;;;29.67;20.70;;;15.20;58.30;;;;;;4981795;28;20062;-42
2023/04/23 02:49:15;;;;;;;27.58;21.20;;;15.20;58.40;;;;;;4983621;28;20490;-43
2023/04/23 02:51:42;;;;;;;28.75;21.30;;;15.20;58.40;;;;;;4984277;28;20061;-38
2023/04/23 02:54:10;;;;;;;30.95;22.88;;;15.20;58.40;;;;;;4989882;28;20410;-41
2023/04/23 02:56:37;;;;;;;29.20;21.75;;;15.20;58.50;;;;;;4988266;28;20062;-40
2023/04/23 02:59:05;;;;;;;31.02;21.98;;;15.10;58.40;;;;;;4989255;28;20532;-42
2023/04/23 03:01:33;;;;;;;27.52;21.05;;;15.20;58.50;;;;;;4986264;28;20058;-43
2023/04/23 03:04:00;;;;;;;28.58;21.73;;;15.10;58.40;;;;;;4987682;28;20054;-42
2023/04/23 03:06:30;;;;;;;33.67;24.40;;;15.10;58.40;;;;;;4989649;28;20528;-40
2023/04/23 03:08:57;;;;;;;34.08;24.15;;;15.10;58.40;;;;;;4988994;28;20054;-45
2023/04/23 03:11:25;;;;;;;29.67;21.85;;;15.10;58.50;;;;;;4986830;28;20053;-44
2023/04/23 03:13:52;;;;;;;28.30;20.20;;;15.10;58.50;;;;;;4985572;28;20046;-42
2023/04/23 03:16:19;;;;;;;30.48;21.67;;;15.00;58.40;;;;;;4987511;28;20050;-42
2023/04/23 03:18:47;;;;;;;25.15;19.55;;;15.00;58.40;;;;;;4994862;28;20441;-42
2023/04/23 03:21:14;;;;;;;33.45;22.30;;;15.00;58.40;;;;;;4989755;28;20050;-41
2023/04/23 03:23:42;;;;;;;26.52;19.48;;;15.00;58.40;;;;;;4993908;28;20057;-45
2023/04/23 03:26:10;;;;;;;28.35;20.65;;;15.00;58.40;;;;;;4992888;28;20085;-39
2023/04/23 03:28:37;;;;;;;26.42;19.02;;;15.00;58.30;;;;;;4991810;28;20057;-43
2023/04/23 03:31:04;;;;;;;30.83;21.50;;;14.90;58.30;;;;;;4985087;28;20061;-44
2023/04/23 03:33:31;;;;;;;26.60;19.05;;;14.90;58.30;;;;;;4987649;28;20057;-43
2023/04/23 03:35:59;;;;;;;23.70;18.30;;;14.90;58.30;;;;;;4994674;28;20057;-40
2023/04/23 03:38:26;;;;;;;23.98;18.00;;;14.90;58.30;;;;;;4997297;28;20061;-45
2023/04/23 03:40:55;;;;;;;23.58;18.10;;;14.90;58.30;;;;;;4988434;28;20061;-44
2023/04/23 03:43:22;;;;;;;25.75;17.88;;;14.80;58.30;;;;;;4987524;28;20060;-40
2023/04/23 03:45:49;;;;;;;21.13;16.60;;;14.80;58.20;;;;;;4988161;28;20077;-42
2023/04/23 03:48:17;;;;;;;22.10;16.58;;;14.80;58.20;;;;;;4988615;28;20057;-40
2023/04/23 03:50:44;;;;;;;21.80;15.40;;;14.80;58.30;;;;;;4992487;28;20054;-44
2023/04/23 03:53:11;;;;;;;23.83;17.23;;;14.70;58.30;;;;;;4989304;28;20050;-43
2023/04/23 03:55:39;;;;;;;19.73;14.95;;;14.70;58.30;;;;;;4992661;28;20069;-41
2023/04/23 03:58:08;;;;;;;21.30;15.38;;;14.70;58.40;;;;;;4994950;28;20058;-43
2023/04/23 04:00:35;;;;;;;21.88;16.10;;;14.70;58.40;;;;;;4986766;28;20069;-41
2023/04/23 04:03:03;;;;;;;21.58;16.50;;;14.70;58.50;;;;;;4990886;28;20497;-43
2023/04/23 04:05:30;;;;;;;17.60;14.30;;;14.70;58.60;;;;;;4986490;28;20418;-46
2023/04/23 04:07:57;;;;;;;32.65;19.30;;;14.70;58.70;;;;;;4986479;28;20501;-44
2023/04/23 04:10:24;;;;;;;74.15;39.47;;;14.60;58.70;;;;;;4987196;28;20053;-46
2023/04/23 04:12:54;;;;;;;42.97;26.33;;;14.70;58.80;;;;;;4985788;28;20061;-42
2023/04/23 04:15:22;;;;;;;24.63;15.98;;;14.60;58.80;;;;;;4988378;28;20054;-41
2023/04/23 04:17:49;;;;;;;17.15;12.73;;;14.60;58.90;;;;;;4987512;28;20777;-43
2023/04/23 04:20:17;;;;;;;16.38;11.75;;;14.70;58.90;;;;;;4985590;28;20054;-41
2023/04/23 04:22:45;;;;;;;16.33;12.23;;;14.60;58.90;;;;;;4988226;28;20065;-43
2023/04/23 04:25:13;;;;;;;14.70;11.15;;;14.60;59.00;;;;;;4989800;28;20053;-42
2023/04/23 04:27:41;;;;;;;13.80;10.95;;;14.60;59.00;;;;;;4995227;28;20064;-43
2023/04/23 04:30:09;;;;;;;14.95;10.98;;;14.60;59.10;;;;;;4992962;28;20057;-43
2023/04/23 04:32:39;;;;;;;14.57;11.30;;;14.70;59.10;;;;;;4998165;28;20055;-42
2023/04/23 04:35:07;;;;;;;14.75;11.45;;;14.70;59.10;;;;;;4992509;28;20051;-44
2023/04/23 04:37:35;;;;;;;14.90;10.90;;;14.60;59.10;;;;;;4968074;28;20546;-42
2023/04/23 04:40:03;;;;;;;15.30;10.55;;;14.70;59.20;;;;;;4990788;28;20054;-40
2023/04/23 04:42:31;;;;;;;13.52;9.40;;;14.60;59.10;;;;;;4990140;28;20394;-42
2023/04/23 04:44:58;;;;;;;12.00;9.38;;;14.70;59.10;;;;;;4988450;28;20509;-40
2023/04/23 04:47:26;;;;;;;13.57;9.70;;;14.70;59.10;;;;;;4987804;28;20137;-41
2023/04/23 04:49:56;;;;;;;14.13;10.13;;;14.60;59.10;;;;;;4987163;28;20066;-41
2023/04/23 04:52:24;;;;;;;12.15;8.13;;;14.60;59.10;;;;;;4827293;28;3645957;-42
2023/04/23 04:54:51;;;;;;;23.02;10.60;;;14.70;59.10;;;;;;4990024;28;20053;-40
2023/04/23 04:57:20;;;;;;;10.43;7.90;;;14.60;59.10;;;;;;4988103;28;20069;-40
2023/04/23 04:59:47;;;;;;;9.88;7.40;;;14.70;59.10;;;;;;4985451;28;20061;-42
2023/04/23 05:02:15;;;;;;;17.13;11.55;;;14.60;59.00;;;;;;4989393;28;20057;-41
2023/04/23 05:04:42;;;;;;;12.50;8.88;;;14.70;59.10;;;;;;4987931;28;20050;-43
2023/04/23 05:07:11;;;;;;;9.63;7.55;;;14.60;59.00;;;;;;4987459;28;20053;-42
2023/04/23 05:09:38;;;;;;;9.32;7.20;;;14.60;59.10;;;;;;4985548;28;20498;-43
2023/04/23 05:12:07;;;;;;;9.13;6.97;;;14.60;59.10;;;;;;4985976;28;20058;-42
2023/04/23 05:14:34;;;;;;;9.45;6.68;;;14.60;59.10;;;;;;4991274;28;20425;-45
2023/04/23 05:17:01;;;;;;;7.97;6.60;;;14.60;59.10;;;;;;4986485;28;20468;-41
2023/04/23 05:19:28;;;;;;;9.60;7.65;;;14.60;59.20;;;;;;4992268;28;20069;-42
2023/04/23 05:21:56;;;;;;;9.45;7.68;;;14.60;59.30;;;;;;4987214;28;20062;-40
2023/04/23 05:24:25;;;;;;;9.82;7.75;;;14.70;59.40;;;;;;4988827;28;20062;-43
2023/04/23 05:26:52;;;;;;;13.70;7.43;;;14.70;59.60;;;;;;4989273;28;20061;-43
2023/04/23 05:29:19;;;;;;;10.82;6.97;;;14.70;59.70;;;;;;4990895;28;20050;-46
2023/04/23 05:31:47;;;;;;;9.50;6.72;;;14.70;59.90;;;;;;4985196;28;20090;-43
2023/04/23 05:34:14;;;;;;;7.78;6.03;;;14.70;60.10;;;;;;4984385;28;20058;-41
2023/04/23 05:36:41;;;;;;;7.20;5.70;;;14.80;60.50;;;;;;4992118;28;20513;-42
2023/04/23 05:39:08;;;;;;;6.93;5.47;;;14.80;60.50;;;;;;4985634;28;20058;-41
2023/04/23 05:41:37;;;;;;;6.63;5.53;;;14.90;60.60;;;;;;4988331;28;20524;-44
2023/04/23 05:44:04;;;;;;;7.45;5.80;;;14.90;60.60;;;;;;4985870;28;20524;-44
2023/04/23 05:46:31;;;;;;;6.68;5.50;;;15.00;60.80;;;;;;4983677;28;20050;-43
2023/04/23 05:48:59;;;;;;;6.72;4.70;;;15.00;60.70;;;;;;4987168;28;20077;-44
2023/04/23 05:51:26;;;;;;;8.15;5.72;;;15.00;60.80;;;;;;4983611;28;20054;-44
2023/04/23 05:53:53;;;;;;;8.57;5.05;;;15.10;61.00;;;;;;4985693;28;20057;-40
2023/04/23 05:56:20;;;;;;;7.97;5.63;;;15.10;61.00;;;;;;4989223;28;20477;-44
2023/04/23 05:58:49;;;;;;;10.63;5.75;;;15.20;61.00;;;;;;4987408;28;20525;-42
2023/04/23 06:01:16;;;;;;;6.03;4.90;;;15.20;61.00;;;;;;4983019;28;20505;-44
2023/04/23 06:03:44;;;;;;;7.32;4.53;;;15.20;60.90;;;;;;4985878;28;20050;-44
2023/04/23 06:06:11;;;;;;;7.57;5.63;;;15.20;60.90;;;;;;4986210;28;20046;-44
2023/04/23 06:08:39;;;;;;;8.05;5.18;;;15.30;61.00;;;;;;4984634;28;20409;-46
2023/04/23 06:11:06;;;;;;;7.65;5.00;;;15.30;61.20;;;;;;4988535;28;20050;-43
2023/04/23 06:13:39;;;;;;;8.45;5.65;;;15.40;61.50;;;;;;4986231;28;20145;-47
2023/04/23 06:16:07;;;;;;;8.07;5.47;;;15.40;61.70;;;;;;4983066;28;20061;-40
2023/04/23 06:18:36;;;;;;;6.32;4.97;;;15.50;61.80;;;;;;4988065;28;20057;-45
2023/04/23 06:21:04;;;;;;;7.88;5.10;;;15.50;61.60;;;;;;4987309;28;20498;-41
2023/04/23 06:23:32;;;;;;;7.10;5.70;;;15.60;61.90;;;;;;4984431;28;20050;-44
2023/04/23 06:26:00;;;;;;;8.48;4.82;;;15.60;62.30;;;;;;4982897;28;20056;-40
2023/04/23 06:28:27;;;;;;;8.82;5.47;;;15.70;62.50;;;;;;4987730;28;20053;-43
2023/04/23 06:30:55;;;;;;;6.30;4.80;;;15.80;62.40;;;;;;4983252;28;20050;-43
2023/04/23 06:33:23;;;;;;;7.65;4.32;;;15.80;61.90;;;;;;4995569;28;20053;-46
2023/04/23 06:35:51;;;;;;;7.05;4.57;;;15.90;61.60;;;;;;4999698;28;20053;-41
2023/04/23 06:38:20;;;;;;;6.07;4.85;;;16.00;61.30;;;;;;4998972;28;21772;-46
2023/04/23 06:40:47;;;;;;;6.13;4.40;;;16.00;61.10;;;;;;4996432;28;20061;-44
2023/04/23 06:43:14;;;;;;;5.35;4.40;;;16.10;60.80;;;;;;5001718;28;20053;-41
2023/04/23 06:45:41;;;;;;;5.40;4.18;;;16.10;60.40;;;;;;4996254;28;20062;-42
2023/04/23 06:48:09;;;;;;;6.03;4.40;;;16.20;60.30;;;;;;4999236;28;20057;-41
2023/04/23 06:50:39;;;;;;;7.45;4.32;;;16.20;60.20;;;;;;4998452;28;20058;-41
2023/04/23 06:53:06;;;;;;;5.70;4.25;;;16.20;60.10;;;;;;4995533;28;20050;-42
2023/04/23 06:55:33;;;;;;;5.32;4.10;;;16.20;59.90;;;;;;4994088;28;20054;-44
2023/04/23 06:58:00;;;;;;;6.47;4.45;;;16.30;60.50;;;;;;4994591;28;20517;-43
2023/04/23 07:00:28;;;;;;;4.88;3.80;;;16.30;59.70;;;;;;4995326;28;20505;-41
2023/04/23 07:02:55;;;;;;;6.05;4.28;;;16.30;59.60;;;;;;4994311;28;20061;-46
2023/04/23 07:05:22;;;;;;;7.20;4.38;;;16.30;59.60;;;;;;4991709;28;20060;-46
2023/04/23 07:07:51;;;;;;;7.50;4.63;;;16.30;59.50;;;;;;4994892;28;20072;-41
2023/04/23 07:10:19;;;;;;;5.68;4.50;;;16.30;59.40;;;;;;4990648;28;20508;-43
2023/04/23 07:12:46;;;;;;;5.63;4.10;;;16.30;59.30;;;;;;4991703;28;20521;-43
2023/04/23 07:15:13;;;;;;;5.47;3.78;;;16.30;59.20;;;;;;4990339;28;20057;-47
2023/04/23 07:17:40;;;;;;;5.80;3.72;;;16.30;59.10;;;;;;4989366;28;20081;-44
2023/04/23 07:20:08;;;;;;;4.63;3.22;;;16.40;59.20;;;;;;4989633;28;20057;-43
2023/04/23 07:22:36;;;;;;;4.80;3.28;;;16.40;59.10;;;;;;4991100;28;20116;-44
2023/04/23 07:25:07;;;;;;;4.30;2.90;;;16.30;59.00;;;;;;4991872;28;20275;-45
2023/04/23 07:27:34;;;;;;;3.38;2.75;;;16.40;59.10;;;;;;4987443;28;20058;-46
2023/04/23 07:30:01;;;;;;;3.35;2.72;;;16.40;58.90;;;;;;4985494;28;20117;-42
2023/04/23 07:32:29;;;;;;;5.22;2.92;;;16.40;58.80;;;;;;4992355;28;20064;-45
2023/04/23 07:34:56;;;;;;;5.95;3.10;;;16.40;58.70;;;;;;4988827;28;20050;-40
2023/04/23 07:37:23;;;;;;;3.40;2.40;;;16.50;58.60;;;;;;4989757;28;20074;-40
2023/04/23 07:39:52;;;;;;;4.45;3.15;;;16.50;58.60;;;;;;4988275;28;20053;-44
2023/04/23 07:42:21;;;;;;;5.13;2.88;;;16.50;58.40;;;;;;4986182;28;20054;-39
2023/04/23 07:44:48;;;;;;;7.55;3.30;;;16.50;58.40;;;;;;4985404;28;20390;-41
2023/04/23 07:47:15;;;;;;;5.88;2.88;;;16.60;58.20;;;;;;4991897;28;20489;-40
2023/04/23 07:49:42;;;;;;;6.13;2.80;;;16.60;58.00;;;;;;4988088;28;20062;-45
2023/04/23 07:52:10;;;;;;;4.28;2.53;;;16.60;58.10;;;;;;4989702;28;20057;-48
2023/04/23 07:54:37;;;;;;;7.28;3.13;;;16.60;58.20;;;;;;4988615;28;20054;-43
2023/04/23 07:57:04;;;;;;;3.75;2.53;;;16.70;58.20;;;;;;4985525;28;20050;-45
2023/04/23 07:59:33;;;;;;;4.10;2.85;;;16.70;58.00;;;;;;4987159;28;20069;-44
2023/04/23 08:02:00;;;;;;;4.25;2.75;;;16.80;58.10;;;;;;4988260;28;20092;-47
2023/04/23 08:04:27;;;;;;;3.47;2.50;;;16.80;58.10;;;;;;4990324;28;20065;-46
2023/04/23 08:06:54;;;;;;;8.50;2.88;;;16.80;58.20;;;;;;4988659;28;20066;-44
2023/04/23 08:09:22;;;;;;;5.85;2.90;;;16.90;57.80;;;;;;4988561;28;20494;-45
2023/04/23 08:11:49;;;;;;;4.20;2.70;;;17.00;57.10;;;;;;4989275;28;20065;-45
2023/04/23 08:14:17;;;;;;;6.43;2.67;;;17.00;56.70;;;;;;4989485;28;20417;-46
2023/04/23 08:16:46;;;;;;;10.13;2.75;;;17.00;56.40;;;;;;4986883;28;20069;-44
2023/04/23 08:19:13;;;;;;;4.35;2.50;;;17.10;56.40;;;;;;4990823;28;20054;-44
2023/04/23 08:21:40;;;;;;;4.88;2.70;;;17.10;56.40;;;;;;4991193;28;20054;-42
2023/04/23 08:24:07;;;;;;;8.38;3.10;;;17.20;56.50;;;;;;4991417;28;20051;-45
2023/04/23 08:26:35;;;;;;;3.30;2.72;;;17.20;56.10;;;;;;4988039;28;20065;-45
2023/04/23 08:29:04;;;;;;;7.38;2.63;;;17.30;56.00;;;;;;4987803;28;20068;-42
2023/04/23 08:31:31;;;;;;;5.65;2.72;;;17.40;56.00;;;;;;4987753;28;20058;-42
2023/04/23 08:34:00;;;;;;;3.28;2.35;;;17.40;55.80;;;;;;4991047;28;20234;-46
2023/04/23 08:36:28;;;;;;;3.35;2.20;;;17.40;55.60;;;;;;4985814;28;20058;-42
2023/04/23 08:38:55;;;;;;;4.80;2.30;;;17.50;55.30;;;;;;4992908;28;20064;-44
2023/04/23 08:41:27;;;;;;;6.22;2.90;;;17.60;55.20;;;;;;4987095;28;20065;-45
2023/04/23 08:44:01;;;;;;;3.97;2.13;;;17.70;55.00;;;;;;4986871;28;20057;-44
2023/04/23 08:46:30;;;;;;;;;;;17.80;55.30;;;;;;4985089;28;20050;-44
2023/04/23 08:49:00;;;;;;;4.50;2.20;;;17.90;55.20;;;;;;4985702;28;19926;-46
2023/04/23 08:51:31;;;;;;;3.58;2.28;;;18.00;55.20;;;;;;4986617;28;20059;-46
2023/04/23 08:54:00;;;;;;;6.57;2.22;;;18.00;55.00;;;;;;4986855;28;20061;-46
2023/04/23 08:56:28;;;;;;;6.03;2.80;;;18.10;54.80;;;;;;4989139;28;20042;-44
2023/04/23 08:58:56;;;;;;;7.22;2.80;;;18.20;54.90;;;;;;4986197;28;20065;-44
2023/04/23 09:01:23;;;;;;;4.53;2.42;;;18.30;54.40;;;;;;4985540;28;20137;-44
2023/04/23 09:03:52;;;;;;;12.52;5.32;;;18.30;54.40;;;;;;4985538;28;20074;-44
2023/04/23 09:06:21;;;;;;;10.32;5.53;;;18.40;54.40;;;;;;4985909;28;20057;-43
2023/04/23 09:08:48;;;;;;;6.68;3.60;;;18.50;54.30;;;;;;4987488;28;20494;-44
2023/04/23 09:11:18;;;;;;;8.90;3.13;;;18.60;54.00;;;;;;4988377;28;20470;-43
2023/04/23 09:13:45;;;;;;;6.18;2.13;;;18.60;53.60;;;;;;4985246;28;20073;-45
2023/04/23 09:16:12;;;;;;;7.25;2.42;;;18.70;53.30;;;;;;4983604;28;20061;-46
2023/04/23 09:18:40;;;;;;;5.80;2.45;;;18.70;52.70;;;;;;4987219;28;20073;-46
2023/04/23 09:21:07;;;;;;;4.68;2.47;;;18.80;52.60;;;;;;4987247;28;20483;-46
2023/04/23 09:23:40;;;;;;;3.38;2.10;;;18.80;52.40;;;;;;4991182;28;20073;-44
2023/04/23 09:26:07;;;;;;;7.93;2.05;;;18.80;52.50;;;;;;4987849;28;20058;-43
2023/04/23 09:28:35;;;;;;;6.28;2.63;;;18.90;52.40;;;;;;4987231;28;20430;-43
2023/04/23 09:31:05;;;;;;;6.28;2.13;;;18.90;52.10;;;;;;4981366;28;20054;-44
2023/04/23 09:33:35;;;;;;;2.50;1.80;;;18.90;52.00;;;;;;4986288;28;20069;-43
2023/04/23 09:36:09;;;;;;;3.15;1.73;;;18.90;51.70;;;;;;4986581;28;20058;-44
2023/04/23 09:38:40;;;;;;;4.45;1.85;;;19.00;51.40;;;;;;4990111;28;20510;-43
2023/04/23 09:41:21;;;;;;;5.13;1.70;;;19.00;51.60;;;;;;4992666;28;20061;-44
2023/04/23 09:43:49;;;;;;;3.38;1.60;;;19.00;51.20;;;;;;4985286;28;20517;-45
2023/04/23 09:46:16;;;;;;;6.28;1.40;;;19.10;51.20;;;;;;4986749;28;20544;-45
2023/04/23 09:48:43;;;;;;;3.75;1.50;;;19.10;50.90;;;;;;4985806;28;20046;-44
2023/04/23 09:51:14;;;;;;;4.85;1.83;;;19.10;50.50;;;;;;4992360;28;20061;-44
2023/04/23 09:53:44;;;;;;;6.15;1.50;;;19.10;50.00;;;;;;4988528;28;20398;-45
2023/04/23 09:56:12;;;;;;;2.88;1.38;;;19.20;49.80;;;;;;4989907;28;20520;-43
2023/04/23 09:58:39;;;;;;;4.43;1.25;;;19.20;49.30;;;;;;4990061;28;20065;-41
2023/04/23 10:01:07;;;;;;;2.63;1.17;;;19.20;48.80;;;;;;4983126;28;20061;-45
2023/04/23 10:03:34;;;;;;;3.78;1.27;;;19.20;48.40;;;;;;4989173;28;20300;-44
2023/04/23 10:06:02;;;;;;;6.97;1.50;;;19.30;48.50;;;;;;4987622;28;20083;-47
2023/04/23 10:08:31;;;;;;;5.30;1.58;;;19.30;48.10;;;;;;4987992;28;20042;-46
2023/04/23 10:11:00;;;;;;;4.32;1.40;;;19.30;48.40;;;;;;4992132;28;20050;-47
2023/04/23 10:13:28;;;;;;;2.45;1.00;;;19.30;48.30;;;;;;4986781;28;20413;-45
2023/04/23 10:15:56;;;;;;;3.00;1.50;;;19.40;48.30;;;;;;4991542;28;20061;-45
2023/04/23 10:18:23;;;;;;;3.00;1.30;;;19.40;48.00;;;;;;4988089;28;20046;-44
2023/04/23 10:20:52;;;;;;;7.57;4.93;;;19.40;48.00;;;;;;4993415;28;20046;-43
2023/04/23 10:23:21;;;;;;;8.70;3.20;;;19.40;47.50;;;;;;4986621;28;20524;-43
2023/04/23 10:25:49;;;;;;;5.63;3.60;;;19.40;47.30;;;;;;4989120;28;20112;-45
2023/04/23 10:28:27;;;;;;;4.80;2.50;;;19.40;47.40;;;;;;4986709;28;20070;-42
2023/04/23 10:30:56;;;;;;;5.80;3.20;;;19.40;47.10;;;;;;4989629;28;20402;-43
2023/04/23 10:33:26;;;;;;;4.35;1.75;;;19.40;47.40;;;;;;4997049;28;20478;-48
2023/04/23 10:35:56;;;;;;;2.15;1.25;;;19.40;46.50;;;;;;4998100;28;20064;-41
2023/04/23 10:38:27;;;;;;;3.15;1.10;;;19.40;45.80;;;;;;4993092;28;20057;-45
2023/04/23 10:40:56;;;;;;;4.07;1.60;;;19.40;45.70;;;;;;4986067;28;20071;-47
2023/04/23 10:43:25;;;;;;;3.65;1.48;;;19.30;45.80;;;;;;4988165;28;20050;-46
2023/04/23 10:45:52;;;;;;;5.57;2.80;;;19.30;45.70;;;;;;4986234;28;20057;-44
2023/04/23 10:48:20;;;;;;;5.57;2.80;;;19.30;45.60;;;;;;4987194;28;20054;-44
2023/04/23 10:50:56;;;;;;;7.40;3.20;;;19.30;45.50;;;;;;4986860;28;20058;-43
2023/04/23 10:53:25;;;;;;;5.35;1.40;;;19.30;45.50;;;;;;4993572;28;20489;-44
2023/04/23 10:56:05;;;;;;;4.97;1.70;;;19.30;45.50;;;;;;4986275;28;20418;-46
2023/04/23 10:58:50;;;;;;;4.47;1.10;;;19.40;45.60;;;;;;4987108;28;20054;-45
2023/04/23 11:01:17;;;;;;;4.70;1.58;;;19.40;45.00;;;;;;4985873;28;20061;-46
2023/04/23 11:03:46;;;;;;;4.43;1.60;;;19.40;45.10;;;;;;4988629;28;20077;-45
2023/04/23 11:06:15;;;;;;;7.72;1.35;;;19.40;45.00;;;;;;4992429;28;20064;-44
2023/04/23 11:08:52;;;;;;;5.45;1.05;;;19.30;45.00;;;;;;4987736;28;20586;-41
2023/04/23 11:11:38;;;;;;;2.30;0.90;;;19.30;44.60;;;;;;4986190;28;20069;-42
2023/04/23 11:14:14;;;;;;;3.78;0.88;;;19.30;44.70;;;;;;5000731;28;20439;-47
2023/04/23 11:16:43;;;;;;;2.42;0.90;;;19.30;44.80;;;;;;4998886;28;20494;-44
2023/04/23 11:19:14;;;;;;;3.65;1.02;;;19.20;45.10;;;;;;4990331;28;20062;-42
2023/04/23 11:21:57;;;;;;;10.07;1.92;;;19.20;45.20;;;;;;4995684;28;20069;-43
2023/04/23 11:24:25;;;;;;;3.08;1.30;;;19.20;45.20;;;;;;4994566;28;20065;-43
2023/04/23 11:26:55;;;;;;;2.75;1.08;;;19.30;45.70;;;;;;4997465;28;20490;-42
2023/04/23 11:29:25;;;;;;;4.43;1.13;;;19.30;45.70;;;;;;4998306;28;20077;-41
2023/04/23 11:31:53;;;;;;;3.25;1.17;;;19.30;46.00;;;;;;4996712;28;20077;-43
2023/04/23 11:34:24;;;;;;;3.80;1.20;;;19.40;46.10;;;;;;4998815;28;20071;-47
2023/04/23 11:36:55;;;;;;;4.25;1.95;;;19.40;45.60;;;;;;4992573;28;20058;-43
2023/04/23 11:39:24;;;;;;;4.95;1.90;;;19.50;45.40;;;;;;4992457;28;20061;-46
2023/04/23 11:41:53;;;;;;;3.58;1.45;;;19.50;45.40;;;;;;4991811;28;20532;-43
2023/04/23 11:44:23;;;;;;;5.28;1.60;;;19.60;45.30;;;;;;4992724;28;20058;-46
2023/04/23 11:46:51;;;;;;;5.97;1.27;;;19.70;45.40;;;;;;4996377;28;20055;-45
2023/04/23 11:49:20;;;;;;;1.80;0.70;;;19.70;45.00;;;;;;4997840;28;20133;-46
2023/04/23 11:51:51;;;;;;;9.73;4.60;;;19.70;44.90;;;;;;4994651;28;20057;-43
2023/04/23 11:54:26;;;;;;;8.35;2.97;;;19.80;44.70;;;;;;4990072;28;21005;-43
2023/04/23 11:56:56;;;;;;;4.82;1.77;;;19.80;44.60;;;;;;5000074;28;20536;-43
2023/04/23 11:59:26;;;;;;;4.40;1.10;;;19.90;44.50;;;;;;4996051;28;20050;-43
2023/04/23 12:01:57;;;;;;;6.75;4.03;;;19.90;44.50;;;;;;4995151;28;20047;-42
2023/04/23 12:04:26;;;;;;;6.00;3.05;;;19.90;44.20;;;;;;4993935;28;20054;-42
2023/04/23 12:06:55;;;;;;;5.70;2.85;;;19.90;43.90;;;;;;4997268;28;20053;-43
2023/04/23 12:09:23;;;;;;;3.08;1.10;;;19.90;44.00;;;;;;4992807;28;20054;-44
2023/04/23 12:11:51;;;;;;;2.53;1.10;;;20.00;44.00;;;;;;4989550;28;20077;-46
2023/04/23 12:14:22;;;;;;;2.30;1.00;;;20.00;44.30;;;;;;4988404;28;20049;-43
2023/04/23 12:16:51;;;;;;;4.28;1.40;;;20.00;44.00;;;;;;4986801;28;20065;-44
2023/04/23 12:19:20;;;;;;;4.78;1.77;;;20.00;44.40;;;;;;4998274;28;20056;-45
2023/04/23 12:21:49;;;;;;;3.60;1.25;;;20.00;44.40;;;;;;4995428;28;20065;-43
2023/04/23 12:24:17;;;;;;;4.57;1.58;;;20.10;44.10;;;;;;4992609;28;20057;-40
2023/04/23 12:26:44;;;;;;;3.83;1.20;;;20.10;44.10;;;;;;4993112;28;20789;-40
2023/04/23 12:29:13;;;;;;;5.53;1.13;;;20.10;44.30;;;;;;4984858;28;20077;-44
2023/04/23 12:31:47;;;;;;;6.50;1.90;;;20.20;44.00;;;;;;4991253;28;20057;-43
2023/04/23 12:34:17;;;;;;;2.75;1.02;;;20.20;43.70;;;;;;4988412;28;20058;-42
2023/04/23 12:36:46;;;;;;;5.32;2.30;;;20.20;43.30;;;;;;4995702;28;20053;-41
2023/04/23 12:39:21;;;;;;;3.55;1.45;;;20.30;43.00;;;;;;4996780;28;20046;-44
2023/04/23 12:41:51;;;;;;;4.78;1.58;;;20.30;42.50;;;;;;4992033;28;20050;-45
2023/04/23 12:44:19;;;;;;;12.27;1.63;;;20.20;43.10;;;;;;5003441;28;20608;-41